LEPP Airport Information

Runway Information
Runway 15 Length 0 ft width 0 ft
Elevation 1468 ft Threshold 0 ft Heading 0
Runway 33 Length 0 ft Width 0 ft
Elevation 1500 ft Threshold 0 ft Heading 0
Runway 16 Length 7241 ft width 148 ft
Elevation 1468 ft Threshold 0 ft Heading 152
Runway 34 Length 7241 ft Width 148 ft
Elevation 1504 ft Threshold 984 ft Heading 332
Airport Frequencies
Type APP Name APP Frequency 118.2 MHZ
Type GND Name GND Frequency 121.7 MHZ
Type TWR Name TWR Frequency 118.2 MHZ
Airport Navaids
Type NDB Name Pamplona Frequency 422 KHZ
Type VOR-DME Name Pamplona Frequency 113550 KHZ
Type VOR-DME Name Pamplona Frequency 112300 KHZ
Airport Weather Information & NOTAM
ADDS - METARS form results

(1911 UTC 22 September 2018)
Data provider http://aviationweather.gov/metar/data/
 
METAR text: LEPP 221900Z 01003KT 340V050 CAVOK 24/13 Q1025
Conditions at: LEPP (PAMPLONA/NOAIN , ES) observed 1900 UTC 22 September 2018
Temperature: 24.0°C (75°F)
Dewpoint: 13.0°C (55°F) [RH = 50%]
Pressure (altimeter): 30.27 inches Hg (1025.0 mb)
Winds: from the N (10 degrees) at 3 MPH (3 knots; 1.5 m/s)
Visibility: 6 or more miles (10+ km)
Ceiling: ceiling and visibility are OK
Clouds: unknown
Weather: no significant weather observed at this time

METAR text: LEPP 221830Z 36007KT CAVOK 24/14 Q1025
Conditions at: LEPP (PAMPLONA/NOAIN , ES) observed 1830 UTC 22 September 2018
Temperature: 24.0°C (75°F)
Dewpoint: 14.0°C (57°F) [RH = 54%]
Pressure (altimeter): 30.27 inches Hg (1025.0 mb)
Winds: from the N (360 degrees) at 8 MPH (7 knots; 3.6 m/s)
Visibility: 6 or more miles (10+ km)
Ceiling: ceiling and visibility are OK
Clouds: unknown
Weather: no significant weather observed at this time

Forecast for: LEPP (PAMPLONA/NOAIN , ES)
Text: TAF LEPP 221400Z 2215/2315 VRB05KT CAVOK TX32/2215Z TN14/2306Z
Forecast period: 1500 UTC 22 September 2018 to 1500 UTC 23 September 2018
Forecast type: FROM: standard forecast or significant change
Winds: variable direction winds at 6 MPH (5 knots; 2.6 m/s)
Visibility: 6 or more miles 10+ km)
Ceiling: unknown
Clouds: missing
Weather: no significant weather forecast for this period
Text: PROB30
Forecast period: 1500 to 1800 UTC 22 September 2018
Forecast type: TEMPORARY: The following changes expected for less than half the time period
Winds: from the N (360 degrees) at 12 MPH (10 knots; 5.1 m/s)
Visibility: missing
Ceiling: unknown
Clouds: missing
Weather: no significant weather forecast for this period